sensor_id;sensor_type;location;lat;lon;timestamp;P1;durP1;ratioP1;P2;durP2;ratioP2
65202;SDS011;51788;45.124;38.966;2023-02-15T00:00:22;15.18;;;9.98;;
65202;SDS011;51788;45.124;38.966;2023-02-15T00:02:48;17.73;;;9.20;;
65202;SDS011;51788;45.124;38.966;2023-02-15T00:05:14;13.23;;;9.45;;
65202;SDS011;51788;45.124;38.966;2023-02-15T00:07:40;14.20;;;8.95;;
65202;SDS011;51788;45.124;38.966;2023-02-15T00:10:06;11.50;;;7.53;;
65202;SDS011;51788;45.124;38.966;2023-02-15T00:12:32;11.52;;;8.35;;
65202;SDS011;51788;45.124;38.966;2023-02-15T00:14:58;17.55;;;10.80;;
65202;SDS011;51788;45.124;38.966;2023-02-15T00:17:26;15.52;;;8.63;;
65202;SDS011;51788;45.124;38.966;2023-02-15T00:19:52;12.95;;;8.20;;
65202;SDS011;51788;45.124;38.966;2023-02-15T00:22:19;18.38;;;8.48;;
65202;SDS011;51788;45.124;38.966;2023-02-15T00:24:45;10.05;;;8.32;;
65202;SDS011;51788;45.124;38.966;2023-02-15T00:27:11;13.50;;;7.85;;
65202;SDS011;51788;45.124;38.966;2023-02-15T00:29:38;12.25;;;9.32;;
65202;SDS011;51788;45.124;38.966;2023-02-15T00:32:04;17.00;;;10.90;;
65202;SDS011;51788;45.124;38.966;2023-02-15T00:34:30;19.45;;;9.73;;
65202;SDS011;51788;45.124;38.966;2023-02-15T00:36:56;15.52;;;8.93;;
65202;SDS011;51788;45.124;38.966;2023-02-15T00:39:22;25.30;;;11.02;;
65202;SDS011;51788;45.124;38.966;2023-02-15T00:41:49;19.17;;;11.27;;
65202;SDS011;51788;45.124;38.966;2023-02-15T00:44:15;15.52;;;8.48;;
65202;SDS011;51788;45.124;38.966;2023-02-15T00:46:41;18.65;;;9.73;;
65202;SDS011;51788;45.124;38.966;2023-02-15T00:49:08;15.30;;;9.15;;
65202;SDS011;51788;45.124;38.966;2023-02-15T00:51:35;17.55;;;11.38;;
65202;SDS011;51788;45.124;38.966;2023-02-15T00:54:01;25.83;;;10.32;;
65202;SDS011;51788;45.124;38.966;2023-02-15T00:56:28;15.90;;;10.57;;
65202;SDS011;51788;45.124;38.966;2023-02-15T00:58:54;13.38;;;10.63;;
65202;SDS011;51788;45.124;38.966;2023-02-15T01:01:20;22.73;;;10.90;;
65202;SDS011;51788;45.124;38.966;2023-02-15T01:03:50;19.38;;;12.07;;
65202;SDS011;51788;45.124;38.966;2023-02-15T01:06:16;20.25;;;10.15;;
65202;SDS011;51788;45.124;38.966;2023-02-15T01:08:43;17.60;;;10.35;;
65202;SDS011;51788;45.124;38.966;2023-02-15T01:11:14;16.55;;;10.07;;
65202;SDS011;51788;45.124;38.966;2023-02-15T01:13:48;20.27;;;10.35;;
65202;SDS011;51788;45.124;38.966;2023-02-15T01:16:15;16.40;;;8.55;;
65202;SDS011;51788;45.124;38.966;2023-02-15T01:18:41;14.18;;;9.18;;
65202;SDS011;51788;45.124;38.966;2023-02-15T01:21:11;16.65;;;10.50;;
65202;SDS011;51788;45.124;38.966;2023-02-15T01:23:39;16.43;;;8.07;;
65202;SDS011;51788;45.124;38.966;2023-02-15T01:26:06;7.70;;;6.75;;
65202;SDS011;51788;45.124;38.966;2023-02-15T01:28:33;15.15;;;9.32;;
65202;SDS011;51788;45.124;38.966;2023-02-15T01:31:04;10.88;;;7.55;;
65202;SDS011;51788;45.124;38.966;2023-02-15T01:33:31;10.02;;;6.00;;
65202;SDS011;51788;45.124;38.966;2023-02-15T01:35:57;6.95;;;6.32;;
65202;SDS011;51788;45.124;38.966;2023-02-15T01:38:23;14.13;;;8.95;;
65202;SDS011;51788;45.124;38.966;2023-02-15T01:40:52;10.38;;;6.00;;
65202;SDS011;51788;45.124;38.966;2023-02-15T01:43:43;6.97;;;6.20;;
65202;SDS011;51788;45.124;38.966;2023-02-15T01:46:11;8.27;;;7.20;;
65202;SDS011;51788;45.124;38.966;2023-02-15T01:48:43;19.20;;;9.45;;
65202;SDS011;51788;45.124;38.966;2023-02-15T01:51:12;15.18;;;9.63;;
65202;SDS011;51788;45.124;38.966;2023-02-15T01:53:43;7.53;;;6.28;;
65202;SDS011;51788;45.124;38.966;2023-02-15T01:56:34;12.40;;;7.40;;
65202;SDS011;51788;45.124;38.966;2023-02-15T01:59:09;13.07;;;7.97;;
65202;SDS011;51788;45.124;38.966;2023-02-15T02:01:40;9.27;;;7.00;;
65202;SDS011;51788;45.124;38.966;2023-02-15T02:06:41;5.68;;;5.18;;
65202;SDS011;51788;45.124;38.966;2023-02-15T02:09:07;3.90;;;3.55;;
65202;SDS011;51788;45.124;38.966;2023-02-15T02:11:33;9.73;;;7.72;;
65202;SDS011;51788;45.124;38.966;2023-02-15T02:14:00;6.97;;;6.13;;
65202;SDS011;51788;45.124;38.966;2023-02-15T02:16:36;11.85;;;6.97;;
65202;SDS011;51788;45.124;38.966;2023-02-15T02:27:42;18.08;;;8.82;;
65202;SDS011;51788;45.124;38.966;2023-02-15T02:38:58;8.35;;;7.45;;
65202;SDS011;51788;45.124;38.966;2023-02-15T02:41:38;10.68;;;7.38;;
65202;SDS011;51788;45.124;38.966;2023-02-15T02:47:08;11.45;;;6.63;;
65202;SDS011;51788;45.124;38.966;2023-02-15T02:49:39;8.93;;;7.88;;
65202;SDS011;51788;45.124;38.966;2023-02-15T02:55:10;2.53;;;2.35;;
65202;SDS011;51788;45.124;38.966;2023-02-15T03:00:18;10.52;;;7.90;;
65202;SDS011;51788;45.124;38.966;2023-02-15T03:02:49;14.02;;;8.65;;
65202;SDS011;51788;45.124;38.966;2023-02-15T03:05:21;11.73;;;7.95;;
65202;SDS011;51788;45.124;38.966;2023-02-15T03:07:50;13.43;;;9.38;;
65202;SDS011;51788;45.124;38.966;2023-02-15T03:10:18;10.60;;;8.32;;
65202;SDS011;51788;45.124;38.966;2023-02-15T03:12:49;16.88;;;12.23;;
65202;SDS011;51788;45.124;38.966;2023-02-15T03:15:21;9.32;;;7.60;;
65202;SDS011;51788;45.124;38.966;2023-02-15T03:17:55;12.00;;;8.43;;
65202;SDS011;51788;45.124;38.966;2023-02-15T03:20:29;8.40;;;7.60;;
65202;SDS011;51788;45.124;38.966;2023-02-15T03:23:11;12.38;;;8.95;;
65202;SDS011;51788;45.124;38.966;2023-02-15T03:25:43;11.90;;;9.18;;
65202;SDS011;51788;45.124;38.966;2023-02-15T03:28:13;11.32;;;8.82;;
65202;SDS011;51788;45.124;38.966;2023-02-15T03:30:43;15.13;;;9.07;;
65202;SDS011;51788;45.124;38.966;2023-02-15T03:33:12;13.65;;;10.15;;
65202;SDS011;51788;45.124;38.966;2023-02-15T03:35:44;16.88;;;10.82;;
65202;SDS011;51788;45.124;38.966;2023-02-15T03:38:19;14.75;;;10.60;;
65202;SDS011;51788;45.124;38.966;2023-02-15T03:40:48;18.63;;;11.60;;
65202;SDS011;51788;45.124;38.966;2023-02-15T03:51:59;12.80;;;9.48;;
65202;SDS011;51788;45.124;38.966;2023-02-15T03:54:28;20.98;;;9.48;;
65202;SDS011;51788;45.124;38.966;2023-02-15T04:00:02;17.03;;;8.43;;
65202;SDS011;51788;45.124;38.966;2023-02-15T04:05:36;15.55;;;7.43;;
65202;SDS011;51788;45.124;38.966;2023-02-15T04:08:02;20.02;;;9.77;;
65202;SDS011;51788;45.124;38.966;2023-02-15T04:10:28;18.40;;;10.93;;
65202;SDS011;51788;45.124;38.966;2023-02-15T04:13:12;26.33;;;12.18;;
65202;SDS011;51788;45.124;38.966;2023-02-15T04:15:38;11.55;;;8.40;;
65202;SDS011;51788;45.124;38.966;2023-02-15T04:18:23;16.63;;;8.65;;
65202;SDS011;51788;45.124;38.966;2023-02-15T04:21:07;19.25;;;9.40;;
65202;SDS011;51788;45.124;38.966;2023-02-15T04:23:52;16.23;;;7.65;;
65202;SDS011;51788;45.124;38.966;2023-02-15T04:26:36;20.27;;;11.73;;
65202;SDS011;51788;45.124;38.966;2023-02-15T04:29:02;24.63;;;10.95;;
65202;SDS011;51788;45.124;38.966;2023-02-15T04:31:28;20.23;;;10.23;;
65202;SDS011;51788;45.124;38.966;2023-02-15T04:33:54;14.10;;;8.52;;
65202;SDS011;51788;45.124;38.966;2023-02-15T04:36:20;19.60;;;10.98;;
65202;SDS011;51788;45.124;38.966;2023-02-15T04:38:46;16.95;;;9.93;;
65202;SDS011;51788;45.124;38.966;2023-02-15T04:41:12;19.23;;;10.98;;
65202;SDS011;51788;45.124;38.966;2023-02-15T04:43:38;20.48;;;11.27;;
65202;SDS011;51788;45.124;38.966;2023-02-15T04:46:04;13.73;;;7.82;;
65202;SDS011;51788;45.124;38.966;2023-02-15T04:48:30;21.50;;;9.75;;
65202;SDS011;51788;45.124;38.966;2023-02-15T04:50:56;14.63;;;8.55;;
65202;SDS011;51788;45.124;38.966;2023-02-15T04:53:22;13.65;;;8.75;;
65202;SDS011;51788;45.124;38.966;2023-02-15T04:55:48;15.63;;;9.73;;
65202;SDS011;51788;45.124;38.966;2023-02-15T04:58:13;16.15;;;11.00;;
65202;SDS011;51788;45.124;38.966;2023-02-15T05:00:39;13.95;;;9.82;;
65202;SDS011;51788;45.124;38.966;2023-02-15T05:03:05;17.15;;;10.32;;
65202;SDS011;51788;45.124;38.966;2023-02-15T05:05:31;20.00;;;11.60;;
65202;SDS011;51788;45.124;38.966;2023-02-15T05:07:57;19.98;;;10.73;;
65202;SDS011;51788;45.124;38.966;2023-02-15T05:10:23;23.83;;;12.73;;
65202;SDS011;51788;45.124;38.966;2023-02-15T05:12:49;17.05;;;11.20;;
65202;SDS011;51788;45.124;38.966;2023-02-15T05:15:15;18.65;;;11.95;;
65202;SDS011;51788;45.124;38.966;2023-02-15T05:17:41;14.75;;;10.15;;
65202;SDS011;51788;45.124;38.966;2023-02-15T05:20:07;7.40;;;6.70;;
65202;SDS011;51788;45.124;38.966;2023-02-15T05:22:33;24.40;;;9.30;;
65202;SDS011;51788;45.124;38.966;2023-02-15T05:24:59;12.55;;;8.48;;
65202;SDS011;51788;45.124;38.966;2023-02-15T05:27:43;15.32;;;8.05;;
65202;SDS011;51788;45.124;38.966;2023-02-15T05:30:27;17.73;;;10.57;;
65202;SDS011;51788;45.124;38.966;2023-02-15T05:32:53;5.75;;;4.82;;
65202;SDS011;51788;45.124;38.966;2023-02-15T05:35:19;10.57;;;7.13;;
65202;SDS011;51788;45.124;38.966;2023-02-15T05:37:45;6.90;;;6.03;;
65202;SDS011;51788;45.124;38.966;2023-02-15T05:40:11;10.77;;;6.28;;
65202;SDS011;51788;45.124;38.966;2023-02-15T05:42:37;16.10;;;9.00;;
65202;SDS011;51788;45.124;38.966;2023-02-15T05:45:03;11.70;;;6.80;;
65202;SDS011;51788;45.124;38.966;2023-02-15T05:47:30;12.32;;;8.25;;
65202;SDS011;51788;45.124;38.966;2023-02-15T05:49:56;9.98;;;7.63;;
65202;SDS011;51788;45.124;38.966;2023-02-15T05:52:22;11.55;;;6.97;;
65202;SDS011;51788;45.124;38.966;2023-02-15T05:54:48;11.35;;;7.45;;
65202;SDS011;51788;45.124;38.966;2023-02-15T05:57:14;20.75;;;11.75;;
65202;SDS011;51788;45.124;38.966;2023-02-15T05:59:40;13.35;;;9.80;;
65202;SDS011;51788;45.124;38.966;2023-02-15T06:02:06;15.18;;;9.60;;
65202;SDS011;51788;45.124;38.966;2023-02-15T06:04:32;15.27;;;9.15;;
65202;SDS011;51788;45.124;38.966;2023-02-15T06:06:58;17.55;;;12.50;;
65202;SDS011;51788;45.124;38.966;2023-02-15T06:09:24;14.60;;;10.40;;
65202;SDS011;51788;45.124;38.966;2023-02-15T06:11:49;10.88;;;7.28;;
65202;SDS011;51788;45.124;38.966;2023-02-15T06:14:15;17.85;;;9.57;;
65202;SDS011;51788;45.124;38.966;2023-02-15T06:16:41;15.13;;;10.20;;
65202;SDS011;51788;45.124;38.966;2023-02-15T06:19:07;17.60;;;11.18;;
65202;SDS011;51788;45.124;38.966;2023-02-15T06:21:33;21.65;;;11.80;;
65202;SDS011;51788;45.124;38.966;2023-02-15T06:23:59;10.80;;;7.18;;
65202;SDS011;51788;45.124;38.966;2023-02-15T06:26:25;18.17;;;9.40;;
65202;SDS011;51788;45.124;38.966;2023-02-15T06:28:51;16.95;;;10.45;;
65202;SDS011;51788;45.124;38.966;2023-02-15T06:31:18;9.65;;;6.65;;
65202;SDS011;51788;45.124;38.966;2023-02-15T06:33:44;21.10;;;12.02;;
65202;SDS011;51788;45.124;38.966;2023-02-15T06:36:10;20.38;;;9.93;;
65202;SDS011;51788;45.124;38.966;2023-02-15T06:38:37;17.13;;;10.88;;
65202;SDS011;51788;45.124;38.966;2023-02-15T06:41:03;15.75;;;7.15;;
65202;SDS011;51788;45.124;38.966;2023-02-15T06:43:29;11.90;;;7.43;;
65202;SDS011;51788;45.124;38.966;2023-02-15T06:45:55;11.80;;;6.82;;
65202;SDS011;51788;45.124;38.966;2023-02-15T06:48:21;23.25;;;13.65;;
65202;SDS011;51788;45.124;38.966;2023-02-15T06:50:47;14.88;;;8.60;;
65202;SDS011;51788;45.124;38.966;2023-02-15T06:53:14;19.55;;;10.43;;
65202;SDS011;51788;45.124;38.966;2023-02-15T06:55:40;14.13;;;8.85;;
65202;SDS011;51788;45.124;38.966;2023-02-15T06:58:06;11.48;;;8.82;;
65202;SDS011;51788;45.124;38.966;2023-02-15T07:00:32;12.38;;;7.95;;
65202;SDS011;51788;45.124;38.966;2023-02-15T07:02:58;11.93;;;7.43;;
65202;SDS011;51788;45.124;38.966;2023-02-15T07:05:25;9.95;;;8.02;;
65202;SDS011;51788;45.124;38.966;2023-02-15T07:07:56;8.23;;;6.97;;
65202;SDS011;51788;45.124;38.966;2023-02-15T07:10:23;16.27;;;8.30;;
65202;SDS011;51788;45.124;38.966;2023-02-15T07:12:49;11.38;;;9.23;;
65202;SDS011;51788;45.124;38.966;2023-02-15T07:15:15;12.77;;;6.85;;
65202;SDS011;51788;45.124;38.966;2023-02-15T07:17:43;9.52;;;7.65;;
65202;SDS011;51788;45.124;38.966;2023-02-15T07:20:10;7.72;;;6.88;;
65202;SDS011;51788;45.124;38.966;2023-02-15T07:22:45;9.15;;;8.20;;
65202;SDS011;51788;45.124;38.966;2023-02-15T07:25:11;18.98;;;9.65;;
65202;SDS011;51788;45.124;38.966;2023-02-15T07:27:38;7.28;;;6.15;;
65202;SDS011;51788;45.124;38.966;2023-02-15T07:30:05;15.73;;;8.18;;
65202;SDS011;51788;45.124;38.966;2023-02-15T07:32:32;11.52;;;9.20;;
65202;SDS011;51788;45.124;38.966;2023-02-15T07:34:59;10.93;;;9.73;;
65202;SDS011;51788;45.124;38.966;2023-02-15T07:37:25;11.82;;;8.82;;
65202;SDS011;51788;45.124;38.966;2023-02-15T07:39:52;12.65;;;9.05;;
65202;SDS011;51788;45.124;38.966;2023-02-15T07:42:18;16.02;;;10.32;;
65202;SDS011;51788;45.124;38.966;2023-02-15T07:44:46;12.48;;;9.18;;
65202;SDS011;51788;45.124;38.966;2023-02-15T07:47:12;7.70;;;6.90;;
65202;SDS011;51788;45.124;38.966;2023-02-15T07:49:38;17.90;;;8.95;;
65202;SDS011;51788;45.124;38.966;2023-02-15T07:52:04;8.57;;;7.35;;
65202;SDS011;51788;45.124;38.966;2023-02-15T07:54:29;13.95;;;9.90;;
65202;SDS011;51788;45.124;38.966;2023-02-15T07:56:55;13.25;;;8.52;;
65202;SDS011;51788;45.124;38.966;2023-02-15T07:59:21;13.00;;;8.32;;
65202;SDS011;51788;45.124;38.966;2023-02-15T08:01:47;16.65;;;7.57;;
65202;SDS011;51788;45.124;38.966;2023-02-15T08:04:13;12.27;;;8.82;;
65202;SDS011;51788;45.124;38.966;2023-02-15T08:06:39;10.98;;;7.80;;
65202;SDS011;51788;45.124;38.966;2023-02-15T08:09:06;10.20;;;7.68;;
65202;SDS011;51788;45.124;38.966;2023-02-15T08:11:34;11.45;;;9.07;;
65202;SDS011;51788;45.124;38.966;2023-02-15T08:14:11;9.55;;;8.50;;
65202;SDS011;51788;45.124;38.966;2023-02-15T08:16:40;10.02;;;7.30;;
65202;SDS011;51788;45.124;38.966;2023-02-15T08:19:24;7.97;;;7.13;;
65202;SDS011;51788;45.124;38.966;2023-02-15T08:21:55;10.80;;;8.82;;
65202;SDS011;51788;45.124;38.966;2023-02-15T08:24:24;7.30;;;6.57;;
65202;SDS011;51788;45.124;38.966;2023-02-15T08:26:51;10.57;;;7.63;;
65202;SDS011;51788;45.124;38.966;2023-02-15T08:29:19;9.60;;;8.15;;
65202;SDS011;51788;45.124;38.966;2023-02-15T08:31:48;7.22;;;6.45;;
65202;SDS011;51788;45.124;38.966;2023-02-15T08:34:16;8.32;;;7.22;;
65202;SDS011;51788;45.124;38.966;2023-02-15T08:36:43;7.25;;;6.55;;
65202;SDS011;51788;45.124;38.966;2023-02-15T08:39:13;7.82;;;7.03;;
65202;SDS011;51788;45.124;38.966;2023-02-15T08:41:41;8.40;;;7.05;;
65202;SDS011;51788;45.124;38.966;2023-02-15T08:44:09;8.80;;;7.20;;
65202;SDS011;51788;45.124;38.966;2023-02-15T08:46:37;10.50;;;7.53;;
65202;SDS011;51788;45.124;38.966;2023-02-15T08:49:07;9.50;;;7.93;;
65202;SDS011;51788;45.124;38.966;2023-02-15T08:51:36;9.65;;;6.95;;
65202;SDS011;51788;45.124;38.966;2023-02-15T08:54:03;9.35;;;6.50;;
65202;SDS011;51788;45.124;38.966;2023-02-15T08:56:33;8.95;;;6.35;;
65202;SDS011;51788;45.124;38.966;2023-02-15T08:59:03;6.10;;;5.55;;
65202;SDS011;51788;45.124;38.966;2023-02-15T09:01:31;7.50;;;6.80;;
65202;SDS011;51788;45.124;38.966;2023-02-15T09:03:59;9.90;;;6.38;;
65202;SDS011;51788;45.124;38.966;2023-02-15T09:06:30;5.70;;;4.80;;
65202;SDS011;51788;45.124;38.966;2023-02-15T09:08:57;7.32;;;6.57;;
65202;SDS011;51788;45.124;38.966;2023-02-15T09:11:24;7.60;;;6.10;;
65202;SDS011;51788;45.124;38.966;2023-02-15T09:13:58;6.97;;;5.30;;
65202;SDS011;51788;45.124;38.966;2023-02-15T09:16:26;6.28;;;4.88;;
65202;SDS011;51788;45.124;38.966;2023-02-15T09:18:54;7.47;;;6.03;;
65202;SDS011;51788;45.124;38.966;2023-02-15T09:21:23;7.88;;;6.03;;
65202;SDS011;51788;45.124;38.966;2023-02-15T09:23:51;6.68;;;6.07;;
65202;SDS011;51788;45.124;38.966;2023-02-15T09:26:21;4.43;;;4.03;;
65202;SDS011;51788;45.124;38.966;2023-02-15T09:28:50;10.57;;;9.10;;
65202;SDS011;51788;45.124;38.966;2023-02-15T09:31:18;7.00;;;6.22;;
65202;SDS011;51788;45.124;38.966;2023-02-15T09:33:47;5.95;;;5.38;;
65202;SDS011;51788;45.124;38.966;2023-02-15T09:36:15;5.53;;;5.03;;
65202;SDS011;51788;45.124;38.966;2023-02-15T09:38:41;9.27;;;7.22;;
65202;SDS011;51788;45.124;38.966;2023-02-15T09:44:03;9.55;;;6.93;;
65202;SDS011;51788;45.124;38.966;2023-02-15T09:46:38;6.35;;;5.80;;
65202;SDS011;51788;45.124;38.966;2023-02-15T09:49:16;6.70;;;5.90;;
65202;SDS011;51788;45.124;38.966;2023-02-15T09:54:42;9.07;;;6.60;;
65202;SDS011;51788;45.124;38.966;2023-02-15T10:02:57;7.13;;;4.70;;
65202;SDS011;51788;45.124;38.966;2023-02-15T10:05:45;7.72;;;6.60;;
65202;SDS011;51788;45.124;38.966;2023-02-15T10:11:31;5.68;;;5.20;;
65202;SDS011;51788;45.124;38.966;2023-02-15T10:19:50;8.35;;;7.00;;
65202;SDS011;51788;45.124;38.966;2023-02-15T10:22:45;8.63;;;6.55;;
65202;SDS011;51788;45.124;38.966;2023-02-15T10:27:45;8.82;;;5.57;;
65202;SDS011;51788;45.124;38.966;2023-02-15T10:30:18;7.97;;;7.07;;
65202;SDS011;51788;45.124;38.966;2023-02-15T10:38:33;4.07;;;3.78;;
65202;SDS011;51788;45.124;38.966;2023-02-15T10:50:03;4.53;;;4.13;;
65202;SDS011;51788;45.124;38.966;2023-02-15T11:01:34;5.88;;;5.40;;
65202;SDS011;51788;45.124;38.966;2023-02-15T11:06:58;6.18;;;5.55;;
65202;SDS011;51788;45.124;38.966;2023-02-15T11:09:33;4.60;;;4.18;;
65202;SDS011;51788;45.124;38.966;2023-02-15T11:12:07;8.60;;;5.50;;
65202;SDS011;51788;45.124;38.966;2023-02-15T11:17:06;5.32;;;4.80;;
65202;SDS011;51788;45.124;38.966;2023-02-15T11:19:37;4.77;;;4.13;;
65202;SDS011;51788;45.124;38.966;2023-02-15T11:22:30;3.45;;;3.20;;
65202;SDS011;51788;45.124;38.966;2023-02-15T11:24:58;5.50;;;4.97;;
65202;SDS011;51788;45.124;38.966;2023-02-15T11:27:30;6.15;;;5.53;;
65202;SDS011;51788;45.124;38.966;2023-02-15T11:30:13;8.32;;;5.63;;
65202;SDS011;51788;45.124;38.966;2023-02-15T11:32:44;5.50;;;4.88;;
65202;SDS011;51788;45.124;38.966;2023-02-15T11:38:04;6.50;;;4.07;;
65202;SDS011;51788;45.124;38.966;2023-02-15T11:43:13;4.95;;;4.47;;
65202;SDS011;51788;45.124;38.966;2023-02-15T11:45:52;4.10;;;3.70;;
65202;SDS011;51788;45.124;38.966;2023-02-15T11:48:17;2.83;;;2.63;;
65202;SDS011;51788;45.124;38.966;2023-02-15T11:50:44;5.25;;;4.22;;
65202;SDS011;51788;45.124;38.966;2023-02-15T11:53:20;11.50;;;4.63;;
65202;SDS011;51788;45.124;38.966;2023-02-15T11:55:51;5.20;;;3.78;;
65202;SDS011;51788;45.124;38.966;2023-02-15T12:00:46;7.20;;;4.28;;
65202;SDS011;51788;45.124;38.966;2023-02-15T12:03:35;4.28;;;3.92;;
65202;SDS011;51788;45.124;38.966;2023-02-15T12:06:05;4.57;;;3.63;;
65202;SDS011;51788;45.124;38.966;2023-02-15T12:08:49;14.50;;;5.00;;
65202;SDS011;51788;45.124;38.966;2023-02-15T12:11:22;5.65;;;4.97;;
65202;SDS011;51788;45.124;38.966;2023-02-15T12:16:43;4.90;;;4.50;;
65202;SDS011;51788;45.124;38.966;2023-02-15T12:19:21;6.80;;;5.30;;
65202;SDS011;51788;45.124;38.966;2023-02-15T12:21:58;7.57;;;4.60;;
65202;SDS011;51788;45.124;38.966;2023-02-15T12:24:27;10.43;;;7.20;;
65202;SDS011;51788;45.124;38.966;2023-02-15T12:27:04;6.10;;;5.28;;
65202;SDS011;51788;45.124;38.966;2023-02-15T12:29:50;9.30;;;5.55;;
65202;SDS011;51788;45.124;38.966;2023-02-15T12:34:55;8.48;;;5.93;;
65202;SDS011;51788;45.124;38.966;2023-02-15T12:37:27;6.45;;;5.05;;
65202;SDS011;51788;45.124;38.966;2023-02-15T12:39:58;4.93;;;4.53;;
65202;SDS011;51788;45.124;38.966;2023-02-15T12:42:25;9.23;;;6.50;;
65202;SDS011;51788;45.124;38.966;2023-02-15T12:47:22;8.80;;;6.53;;
65202;SDS011;51788;45.124;38.966;2023-02-15T12:52:48;6.55;;;5.75;;
65202;SDS011;51788;45.124;38.966;2023-02-15T12:58:05;10.07;;;7.57;;
65202;SDS011;51788;45.124;38.966;2023-02-15T13:00:31;5.45;;;5.03;;
65202;SDS011;51788;45.124;38.966;2023-02-15T13:02:58;5.88;;;5.38;;
65202;SDS011;51788;45.124;38.966;2023-02-15T13:08:21;6.70;;;4.60;;
65202;SDS011;51788;45.124;38.966;2023-02-15T13:10:57;4.80;;;4.35;;
65202;SDS011;51788;45.124;38.966;2023-02-15T13:13:51;11.18;;;6.70;;
65202;SDS011;51788;45.124;38.966;2023-02-15T13:16:21;9.77;;;5.55;;
65202;SDS011;51788;45.124;38.966;2023-02-15T13:18:53;6.93;;;6.22;;
65202;SDS011;51788;45.124;38.966;2023-02-15T13:21:43;6.35;;;5.20;;
65202;SDS011;51788;45.124;38.966;2023-02-15T13:26:46;6.65;;;5.75;;
65202;SDS011;51788;45.124;38.966;2023-02-15T13:31:47;7.85;;;6.55;;
65202;SDS011;51788;45.124;38.966;2023-02-15T13:34:17;8.45;;;6.53;;
65202;SDS011;51788;45.124;38.966;2023-02-15T13:42:24;6.22;;;5.20;;
65202;SDS011;51788;45.124;38.966;2023-02-15T13:47:50;3.88;;;3.65;;
65202;SDS011;51788;45.124;38.966;2023-02-15T14:01:28;2.65;;;2.45;;
65202;SDS011;51788;45.124;38.966;2023-02-15T14:04:07;2.85;;;2.65;;
65202;SDS011;51788;45.124;38.966;2023-02-15T14:23:36;6.88;;;6.20;;
65202;SDS011;51788;45.124;38.966;2023-02-15T14:29:16;9.18;;;7.18;;
65202;SDS011;51788;45.124;38.966;2023-02-15T14:32:10;7.97;;;6.65;;
65202;SDS011;51788;45.124;38.966;2023-02-15T14:34:59;8.00;;;6.22;;
65202;SDS011;51788;45.124;38.966;2023-02-15T14:43:05;5.57;;;5.05;;
65202;SDS011;51788;45.124;38.966;2023-02-15T14:45:49;11.18;;;6.85;;
65202;SDS011;51788;45.124;38.966;2023-02-15T14:48:25;12.03;;;7.37;;
65202;SDS011;51788;45.124;38.966;2023-02-15T14:50:56;19.08;;;6.75;;
65202;SDS011;51788;45.124;38.966;2023-02-15T14:58:38;4.78;;;4.38;;
65202;SDS011;51788;45.124;38.966;2023-02-15T15:01:25;6.82;;;5.38;;
65202;SDS011;51788;45.124;38.966;2023-02-15T15:03:53;7.75;;;5.60;;
65202;SDS011;51788;45.124;38.966;2023-02-15T15:06:26;6.10;;;4.68;;
65202;SDS011;51788;45.124;38.966;2023-02-15T15:08:58;10.85;;;7.50;;
65202;SDS011;51788;45.124;38.966;2023-02-15T15:11:40;7.18;;;5.10;;
65202;SDS011;51788;45.124;38.966;2023-02-15T15:14:36;6.80;;;5.57;;
65202;SDS011;51788;45.124;38.966;2023-02-15T15:16:57;4.50;;;4.10;;
65202;SDS011;51788;45.124;38.966;2023-02-15T15:22:20;7.05;;;5.93;;
65202;SDS011;51788;45.124;38.966;2023-02-15T15:24:59;5.18;;;4.78;;
65202;SDS011;51788;45.124;38.966;2023-02-15T15:32:53;7.25;;;6.07;;
65202;SDS011;51788;45.124;38.966;2023-02-15T15:38:36;7.88;;;6.53;;
65202;SDS011;51788;45.124;38.966;2023-02-15T15:47:20;7.45;;;6.65;;
65202;SDS011;51788;45.124;38.966;2023-02-15T15:50:04;16.55;;;6.93;;
65202;SDS011;51788;45.124;38.966;2023-02-15T15:52:38;6.93;;;6.25;;
65202;SDS011;51788;45.124;38.966;2023-02-15T15:55:14;9.38;;;6.10;;
65202;SDS011;51788;45.124;38.966;2023-02-15T15:57:44;11.80;;;7.50;;
65202;SDS011;51788;45.124;38.966;2023-02-15T16:02:59;9.57;;;7.55;;
65202;SDS011;51788;45.124;38.966;2023-02-15T16:05:26;12.40;;;6.82;;
65202;SDS011;51788;45.124;38.966;2023-02-15T16:07:52;8.80;;;6.40;;
65202;SDS011;51788;45.124;38.966;2023-02-15T16:10:22;10.20;;;5.80;;
65202;SDS011;51788;45.124;38.966;2023-02-15T16:12:50;5.47;;;4.93;;
65202;SDS011;51788;45.124;38.966;2023-02-15T16:15:19;7.65;;;5.50;;
65202;SDS011;51788;45.124;38.966;2023-02-15T16:17:50;6.57;;;4.28;;
65202;SDS011;51788;45.124;38.966;2023-02-15T16:20:34;6.38;;;5.72;;
65202;SDS011;51788;45.124;38.966;2023-02-15T16:29:31;5.07;;;3.42;;
65202;SDS011;51788;45.124;38.966;2023-02-15T16:35:01;5.47;;;5.05;;
65202;SDS011;51788;45.124;38.966;2023-02-15T16:37:32;8.52;;;7.60;;
65202;SDS011;51788;45.124;38.966;2023-02-15T16:39:59;11.48;;;7.00;;
65202;SDS011;51788;45.124;38.966;2023-02-15T16:42:26;6.22;;;4.32;;
65202;SDS011;51788;45.124;38.966;2023-02-15T16:44:57;7.20;;;4.40;;
65202;SDS011;51788;45.124;38.966;2023-02-15T16:47:42;6.15;;;5.25;;
65202;SDS011;51788;45.124;38.966;2023-02-15T16:50:20;11.30;;;7.30;;
65202;SDS011;51788;45.124;38.966;2023-02-15T16:52:49;6.25;;;5.20;;
65202;SDS011;51788;45.124;38.966;2023-02-15T16:55:20;15.57;;;9.00;;
65202;SDS011;51788;45.124;38.966;2023-02-15T16:57:48;14.05;;;9.20;;
65202;SDS011;51788;45.124;38.966;2023-02-15T17:00:20;6.93;;;6.10;;
65202;SDS011;51788;45.124;38.966;2023-02-15T17:02:52;10.13;;;8.30;;
65202;SDS011;51788;45.124;38.966;2023-02-15T17:05:23;11.00;;;7.35;;
65202;SDS011;51788;45.124;38.966;2023-02-15T17:08:06;6.80;;;6.10;;
65202;SDS011;51788;45.124;38.966;2023-02-15T17:16:35;7.63;;;6.55;;
65202;SDS011;51788;45.124;38.966;2023-02-15T17:19:28;9.60;;;6.47;;
65202;SDS011;51788;45.124;38.966;2023-02-15T17:21:58;5.88;;;5.38;;
65202;SDS011;51788;45.124;38.966;2023-02-15T17:24:38;12.43;;;9.35;;
65202;SDS011;51788;45.124;38.966;2023-02-15T17:27:21;10.55;;;8.77;;
65202;SDS011;51788;45.124;38.966;2023-02-15T17:29:57;11.10;;;8.32;;
65202;SDS011;51788;45.124;38.966;2023-02-15T17:32:27;8.45;;;6.53;;
65202;SDS011;51788;45.124;38.966;2023-02-15T17:34:59;9.45;;;8.05;;
65202;SDS011;51788;45.124;38.966;2023-02-15T17:40:13;8.60;;;7.47;;
65202;SDS011;51788;45.124;38.966;2023-02-15T17:43:06;12.75;;;8.15;;
65202;SDS011;51788;45.124;38.966;2023-02-15T17:45:36;10.68;;;6.43;;
65202;SDS011;51788;45.124;38.966;2023-02-15T17:48:10;5.28;;;4.78;;
65202;SDS011;51788;45.124;38.966;2023-02-15T17:50:48;5.82;;;5.22;;
65202;SDS011;51788;45.124;38.966;2023-02-15T17:53:16;13.60;;;8.90;;
65202;SDS011;51788;45.124;38.966;2023-02-15T17:55:43;8.70;;;5.97;;
65202;SDS011;51788;45.124;38.966;2023-02-15T17:58:14;14.10;;;8.05;;
65202;SDS011;51788;45.124;38.966;2023-02-15T18:00:44;10.05;;;7.85;;
65202;SDS011;51788;45.124;38.966;2023-02-15T18:03:50;9.93;;;6.63;;
65202;SDS011;51788;45.124;38.966;2023-02-15T18:06:37;9.35;;;8.38;;
65202;SDS011;51788;45.124;38.966;2023-02-15T18:09:24;8.68;;;6.15;;
65202;SDS011;51788;45.124;38.966;2023-02-15T18:12:22;6.40;;;5.78;;
65202;SDS011;51788;45.124;38.966;2023-02-15T18:14:50;9.75;;;8.20;;
65202;SDS011;51788;45.124;38.966;2023-02-15T18:17:26;9.80;;;8.25;;
65202;SDS011;51788;45.124;38.966;2023-02-15T18:19:55;7.78;;;6.95;;